createdAt,value
2023-01-17T00:02:29.117Z,6.00
2023-01-17T00:05:29.520Z,5.97
2023-01-17T00:08:53.033Z,6.03
2023-01-17T00:12:14.716Z,6.03
2023-01-17T00:15:19.734Z,5.30
2023-01-17T00:18:06.897Z,5.53
2023-01-17T00:21:12.258Z,6.40
2023-01-17T00:23:58.253Z,6.67
2023-01-17T00:27:03.980Z,6.60
2023-01-17T00:29:51.060Z,7.10
2023-01-17T00:32:57.901Z,7.17
2023-01-17T00:35:27.564Z,7.47
2023-01-17T00:38:35.879Z,8.57
2023-01-17T00:41:22.974Z,8.47
2023-01-17T00:44:48.775Z,8.60
2023-01-17T00:47:49.227Z,8.50
2023-01-17T00:51:09.562Z,8.40
2023-01-17T00:54:29.947Z,9.80
2023-01-17T00:57:36.030Z,9.70
2023-01-17T01:00:41.743Z,9.23
2023-01-17T01:04:01.976Z,10.10
2023-01-17T01:07:07.912Z,9.83
2023-01-17T01:10:13.483Z,8.97
2023-01-17T01:13:13.854Z,9.43
2023-01-17T01:16:19.831Z,10.23
2023-01-17T01:19:45.081Z,9.40
2023-01-17T01:23:05.663Z,9.30
2023-01-17T01:26:11.403Z,10.17
2023-01-17T01:29:17.125Z,8.60
2023-01-17T01:32:17.340Z,9.40
2023-01-17T01:35:04.708Z,9.50
2023-01-17T01:38:11.670Z,9.00
2023-01-17T01:41:13.449Z,9.73
2023-01-17T01:44:33.752Z,8.10
2023-01-17T01:47:21.565Z,9.30
2023-01-17T01:49:49.311Z,9.33
2023-01-17T01:52:51.966Z,8.37
2023-01-17T01:55:39.169Z,8.93
2023-01-17T01:58:48.810Z,8.50
2023-01-17T02:01:36.161Z,8.30
2023-01-17T02:04:43.633Z,7.83
2023-01-17T02:07:54.064Z,8.00
2023-01-17T02:10:56.776Z,7.97
2023-01-17T02:13:24.120Z,8.20
2023-01-17T02:16:28.567Z,8.63
2023-01-17T02:19:43.527Z,8.27
2023-01-17T02:22:58.016Z,8.93
2023-01-17T02:26:07.716Z,8.73
2023-01-17T02:29:07.099Z,8.00
2023-01-17T02:32:13.076Z,10.20
2023-01-17T02:35:11.379Z,8.30
2023-01-17T02:37:44.479Z,7.97
2023-01-17T02:40:37.096Z,8.63
2023-01-17T02:43:44.189Z,7.50
2023-01-17T02:46:31.368Z,8.73
2023-01-17T02:49:21.166Z,8.03
2023-01-17T02:52:08.140Z,8.13
2023-01-17T02:55:01.805Z,8.30
2023-01-17T02:58:07.561Z,9.33
2023-01-17T03:00:47.765Z,8.63
2023-01-17T03:03:15.097Z,7.97
2023-01-17T03:06:44.576Z,8.30
2023-01-17T03:09:46.757Z,7.90
2023-01-17T03:12:30.228Z,8.60
2023-01-17T03:15:17.739Z,8.07
2023-01-17T03:18:24.668Z,8.50
2023-01-17T03:21:11.922Z,8.30
2023-01-17T03:23:38.842Z,8.10
2023-01-17T03:26:26.107Z,7.40
2023-01-17T03:29:13.067Z,8.33
2023-01-17T03:32:00.683Z,8.67
2023-01-17T03:34:27.654Z,7.90
2023-01-17T03:37:14.965Z,7.67
2023-01-17T03:40:22.250Z,7.80
2023-01-17T03:43:24.023Z,8.90
2023-01-17T03:45:54.431Z,7.40
2023-01-17T03:48:41.627Z,7.53
2023-01-17T03:51:48.747Z,7.50
2023-01-17T03:54:35.723Z,7.67
2023-01-17T03:57:37.515Z,7.13
2023-01-17T04:00:39.660Z,8.00
2023-01-17T04:03:22.178Z,6.93
2023-01-17T04:06:23.975Z,7.43
2023-01-17T04:09:11.159Z,8.00
2023-01-17T04:12:18.052Z,7.53
2023-01-17T04:15:39.782Z,8.00
2023-01-17T04:18:27.099Z,7.37
2023-01-17T04:20:54.062Z,7.33
2023-01-17T04:23:55.836Z,7.87
2023-01-17T04:26:43.067Z,8.13
2023-01-17T04:29:50.059Z,7.33
2023-01-17T04:32:17.347Z,7.33
2023-01-17T04:35:24.645Z,7.20
2023-01-17T04:38:11.816Z,8.13
2023-01-17T04:41:18.782Z,7.60
2023-01-17T04:43:46.004Z,6.47
2023-01-17T04:46:32.993Z,7.83
2023-01-17T04:49:20.166Z,7.73
2023-01-17T04:52:47.012Z,7.43
2023-01-17T04:56:08.771Z,6.97
2023-01-17T04:59:10.568Z,6.30
2023-01-17T05:01:37.902Z,7.50
2023-01-17T05:04:25.454Z,6.80
2023-01-17T05:07:27.236Z,7.10
2023-01-17T05:10:29.939Z,7.60
2023-01-17T05:12:58.754Z,6.80
2023-01-17T05:16:06.043Z,7.40
2023-01-17T05:19:07.875Z,7.30
2023-01-17T05:22:32.420Z,7.30
2023-01-17T05:25:54.135Z,7.03
2023-01-17T05:28:41.349Z,7.33
2023-01-17T05:31:28.279Z,7.40
2023-01-17T05:34:15.522Z,7.43
2023-01-17T05:37:02.395Z,7.43
2023-01-17T05:40:06.683Z,7.63
2023-01-17T05:42:53.686Z,7.10
2023-01-17T05:45:40.947Z,7.37
2023-01-17T05:48:27.852Z,7.93
2023-01-17T05:51:15.128Z,6.93
2023-01-17T05:53:42.058Z,6.17
2023-01-17T05:56:29.224Z,7.50
2023-01-17T05:59:17.325Z,8.20
2023-01-17T06:02:42.339Z,8.33
2023-01-17T06:05:50.219Z,6.87
2023-01-17T06:08:57.251Z,7.37
2023-01-17T06:11:24.518Z,7.57
2023-01-17T06:14:31.416Z,6.93
2023-01-17T06:17:18.569Z,6.70
2023-01-17T06:20:05.436Z,7.50
2023-01-17T06:22:47.277Z,6.87
2023-01-17T06:25:43.693Z,6.70
2023-01-17T06:28:30.731Z,7.10
2023-01-17T06:31:18.388Z,7.07
2023-01-17T06:33:45.457Z,8.00
2023-01-17T06:36:47.212Z,7.03
2023-01-17T06:39:34.480Z,7.17
2023-01-17T06:42:41.528Z,7.10
2023-01-17T06:45:09.175Z,7.37
2023-01-17T06:47:59.516Z,7.10
2023-01-17T06:51:21.222Z,6.50
2023-01-17T06:54:23.033Z,7.80
2023-01-17T06:57:24.849Z,6.80
2023-01-17T07:00:27.236Z,7.50
2023-01-17T07:02:55.000Z,8.23
2023-01-17T07:05:22.361Z,7.80
2023-01-17T07:07:49.723Z,8.07
2023-01-17T07:10:16.903Z,8.50
2023-01-17T07:12:44.379Z,7.37
2023-01-17T07:15:11.833Z,7.60
2023-01-17T07:17:39.635Z,8.33
2023-01-17T07:20:07.182Z,7.70
2023-01-17T07:22:34.487Z,7.63
2023-01-17T07:25:01.467Z,9.00
2023-01-17T07:27:30.562Z,8.53
2023-01-17T07:29:58.236Z,8.27
2023-01-17T07:32:28.194Z,7.73
2023-01-17T07:34:57.628Z,7.87
2023-01-17T07:37:26.460Z,7.40
2023-01-17T07:39:54.609Z,7.63
2023-01-17T07:42:24.239Z,7.40
2023-01-17T07:44:51.436Z,7.70
2023-01-17T07:47:19.974Z,7.83
2023-01-17T07:49:46.985Z,7.30
2023-01-17T07:52:14.596Z,7.57
2023-01-17T07:54:42.403Z,7.60
2023-01-17T07:57:12.418Z,7.60
2023-01-17T07:59:39.331Z,7.10
2023-01-17T08:02:07.967Z,8.53
2023-01-17T08:04:35.330Z,7.27
2023-01-17T08:07:02.910Z,8.03
2023-01-17T08:09:30.137Z,7.63
2023-01-17T08:11:57.406Z,7.50
2023-01-17T08:14:24.995Z,7.70
2023-01-17T08:16:52.732Z,7.20
2023-01-17T08:19:19.854Z,7.50
2023-01-17T08:21:47.090Z,6.90
2023-01-17T08:24:14.720Z,6.07
2023-01-17T08:26:42.078Z,6.13
2023-01-17T08:29:09.614Z,6.23
2023-01-17T08:31:36.970Z,6.07
2023-01-17T08:34:04.430Z,6.03
2023-01-17T08:36:31.763Z,5.80
2023-01-17T08:38:58.967Z,5.53
2023-01-17T08:41:29.338Z,5.53
2023-01-17T08:43:56.349Z,5.37
2023-01-17T08:46:24.996Z,5.47
2023-01-17T08:48:56.569Z,5.80
2023-01-17T08:51:26.410Z,5.87
2023-01-17T08:53:55.203Z,5.80
2023-01-17T08:56:27.310Z,6.13
2023-01-17T08:58:54.437Z,5.93
2023-01-17T09:01:21.836Z,5.50
2023-01-17T09:03:51.436Z,5.20
2023-01-17T09:06:19.256Z,5.73
2023-01-17T09:08:47.068Z,5.13
2023-01-17T09:11:16.946Z,5.27
2023-01-17T09:13:44.738Z,5.73
2023-01-17T09:16:12.274Z,5.10
2023-01-17T09:18:39.357Z,5.17
2023-01-17T09:21:14.469Z,5.37
2023-01-17T09:23:42.205Z,5.50
2023-01-17T09:26:25.283Z,4.63
2023-01-17T09:28:52.837Z,5.77
2023-01-17T09:31:21.472Z,5.00
2023-01-17T09:33:49.894Z,4.60
2023-01-17T09:36:17.315Z,5.00
2023-01-17T09:38:44.721Z,4.83
2023-01-17T09:41:35.146Z,5.67
2023-01-17T09:44:18.904Z,5.43
2023-01-17T09:46:48.496Z,5.23
2023-01-17T09:49:32.163Z,5.63
2023-01-17T09:52:00.255Z,5.73
2023-01-17T09:54:34.407Z,5.63
2023-01-17T09:57:07.315Z,4.93
2023-01-17T09:59:45.647Z,5.40
2023-01-17T10:03:01.720Z,5.80
2023-01-17T10:05:52.742Z,5.10
2023-01-17T10:08:38.897Z,5.03
2023-01-17T10:11:26.848Z,5.77
2023-01-17T10:14:14.380Z,5.23
2023-01-17T10:17:22.350Z,5.43
2023-01-17T10:20:07.781Z,5.17
2023-01-17T10:22:43.111Z,5.93
2023-01-17T10:25:23.633Z,5.10
2023-01-17T10:28:04.897Z,4.57
2023-01-17T10:30:39.324Z,5.20
2023-01-17T10:33:31.334Z,5.70
2023-01-17T10:36:03.865Z,5.23
2023-01-17T10:38:38.755Z,6.00
2023-01-17T10:41:17.108Z,5.03
2023-01-17T10:43:52.468Z,5.87
2023-01-17T10:46:25.213Z,5.90
2023-01-17T10:48:52.922Z,5.93
2023-01-17T10:51:44.825Z,5.27
2023-01-17T10:54:31.893Z,5.57
2023-01-17T10:56:59.423Z,6.43
2023-01-17T10:59:33.838Z,5.73
2023-01-17T11:02:07.519Z,6.47
2023-01-17T11:04:40.716Z,5.43
2023-01-17T11:07:16.985Z,5.50
2023-01-17T11:09:53.307Z,6.00
2023-01-17T11:12:20.592Z,7.03
2023-01-17T11:15:10.605Z,6.47
2023-01-17T11:17:46.896Z,7.40
2023-01-17T11:20:31.692Z,5.83
2023-01-17T11:23:11.498Z,5.87
2023-01-17T11:25:39.158Z,6.03
2023-01-17T11:28:30.502Z,5.67
2023-01-17T11:31:00.750Z,5.90
2023-01-17T11:33:47.944Z,6.40
2023-01-17T11:36:41.557Z,6.27
2023-01-17T11:39:17.750Z,6.43
2023-01-17T11:41:47.776Z,6.20
2023-01-17T11:44:30.543Z,6.80
2023-01-17T11:47:12.765Z,6.47
2023-01-17T11:49:50.139Z,5.77
2023-01-17T11:52:31.972Z,6.37
2023-01-17T11:54:59.776Z,6.87
2023-01-17T11:57:31.399Z,6.23
2023-01-17T12:00:11.886Z,6.20
2023-01-17T12:03:01.173Z,6.97
2023-01-17T12:05:53.732Z,6.80
2023-01-17T12:08:20.643Z,6.70
2023-01-17T12:11:07.352Z,6.50
2023-01-17T12:14:01.812Z,6.80
2023-01-17T12:16:41.176Z,7.43
2023-01-17T12:19:38.062Z,6.87
2023-01-17T12:22:50.410Z,7.17
2023-01-17T12:25:27.329Z,6.37
2023-01-17T12:28:16.506Z,6.80
2023-01-17T12:30:46.467Z,6.97
2023-01-17T12:33:32.973Z,7.00
2023-01-17T12:36:05.192Z,6.60
2023-01-17T12:38:38.827Z,7.80
2023-01-17T12:41:17.920Z,8.00
2023-01-17T12:43:45.928Z,7.50
2023-01-17T12:46:24.575Z,6.63
2023-01-17T12:48:58.311Z,6.67
2023-01-17T12:51:33.399Z,7.23
2023-01-17T12:54:09.496Z,7.07
2023-01-17T12:56:58.861Z,7.33
2023-01-17T12:59:37.053Z,7.67
2023-01-17T13:02:31.554Z,7.00
2023-01-17T13:05:15.372Z,7.70
2023-01-17T13:08:01.916Z,7.53
2023-01-17T13:10:39.070Z,7.20
2023-01-17T13:13:22.473Z,7.53
2023-01-17T13:16:02.528Z,7.20
2023-01-17T13:18:30.058Z,7.80
2023-01-17T13:21:42.609Z,7.60
2023-01-17T13:24:51.943Z,7.00
2023-01-17T13:27:31.395Z,8.20
2023-01-17T13:30:04.478Z,7.27
2023-01-17T13:32:57.450Z,7.63
2023-01-17T13:35:50.992Z,8.03
2023-01-17T13:38:27.137Z,8.73
2023-01-17T13:40:54.071Z,7.97
2023-01-17T13:44:01.924Z,7.50
2023-01-17T13:46:51.989Z,7.00
2023-01-17T13:49:45.185Z,7.17
2023-01-17T13:52:20.945Z,7.57
2023-01-17T13:54:51.215Z,8.27
2023-01-17T13:57:29.551Z,7.87
2023-01-17T13:59:58.985Z,7.10
2023-01-17T14:02:39.475Z,6.73
2023-01-17T14:05:12.946Z,7.53
2023-01-17T14:07:59.775Z,7.30
2023-01-17T14:10:47.746Z,9.57
2023-01-17T14:13:38.422Z,7.33
2023-01-17T14:16:24.461Z,8.30
2023-01-17T14:18:53.010Z,8.33
2023-01-17T14:21:29.086Z,8.30
2023-01-17T14:24:22.246Z,8.73
2023-01-17T14:26:59.203Z,8.40
2023-01-17T14:29:57.514Z,7.83
2023-01-17T14:32:37.777Z,7.97
2023-01-17T14:35:22.639Z,8.00
2023-01-17T14:37:53.029Z,8.03
2023-01-17T14:40:30.756Z,8.43
2023-01-17T14:43:21.948Z,8.80
2023-01-17T14:45:49.448Z,8.43
2023-01-17T14:48:20.565Z,7.70
2023-01-17T14:50:49.469Z,9.23
2023-01-17T14:53:19.936Z,8.10
2023-01-17T14:55:56.461Z,8.77
2023-01-17T14:58:32.037Z,8.93
2023-01-17T15:01:13.920Z,8.80
2023-01-17T15:03:49.405Z,8.60
2023-01-17T15:06:40.700Z,8.50
2023-01-17T15:09:18.423Z,8.70
2023-01-17T15:11:47.799Z,9.13
2023-01-17T15:14:22.177Z,9.17
2023-01-17T15:16:52.151Z,8.50
2023-01-17T15:19:20.312Z,9.23
2023-01-17T15:21:51.393Z,8.73
2023-01-17T15:24:22.828Z,9.30
2023-01-17T15:26:51.213Z,9.60
2023-01-17T15:29:41.760Z,9.57
2023-01-17T15:32:23.727Z,8.63
2023-01-17T15:34:52.065Z,9.40
2023-01-17T15:37:40.665Z,9.77
2023-01-17T15:40:17.241Z,8.70
2023-01-17T15:42:47.496Z,8.87
2023-01-17T15:45:20.461Z,9.13
2023-01-17T15:47:48.942Z,9.47
2023-01-17T15:50:28.543Z,8.47
2023-01-17T15:52:59.115Z,9.53
2023-01-17T15:55:35.709Z,10.10
2023-01-17T15:58:04.694Z,10.33
2023-01-17T16:00:39.224Z,9.53
2023-01-17T16:03:18.151Z,10.60
2023-01-17T16:05:46.076Z,9.67
2023-01-17T16:08:15.397Z,11.40
2023-01-17T16:10:43.827Z,10.27
2023-01-17T16:13:12.936Z,10.33
2023-01-17T16:15:43.143Z,9.73
2023-01-17T16:18:23.002Z,9.77
2023-01-17T16:21:17.017Z,8.80
2023-01-17T16:23:44.155Z,9.77
2023-01-17T16:26:11.438Z,10.00
2023-01-17T16:28:38.914Z,10.03
2023-01-17T16:31:06.360Z,10.77
2023-01-17T16:33:33.389Z,11.40
2023-01-17T16:36:00.659Z,11.53
2023-01-17T16:38:27.894Z,10.43
2023-01-17T16:40:55.178Z,10.73
2023-01-17T16:43:22.165Z,11.23
2023-01-17T16:45:53.193Z,11.83
2023-01-17T16:48:21.628Z,11.17
2023-01-17T16:50:52.337Z,11.30
2023-01-17T16:53:25.244Z,10.70
2023-01-17T16:55:58.354Z,10.80
2023-01-17T16:58:25.680Z,10.83
2023-01-17T17:00:55.296Z,11.03
2023-01-17T17:03:22.785Z,10.37
2023-01-17T17:05:58.487Z,10.03
2023-01-17T17:08:25.535Z,9.93
2023-01-17T17:10:52.911Z,10.13
2023-01-17T17:13:20.192Z,10.40
2023-01-17T17:15:47.747Z,10.10
2023-01-17T17:18:16.493Z,8.80
2023-01-17T17:20:44.968Z,10.23
2023-01-17T17:23:12.395Z,9.63
2023-01-17T17:25:40.294Z,9.93
2023-01-17T17:28:07.236Z,9.20
2023-01-17T17:30:36.266Z,10.03
2023-01-17T17:33:04.620Z,9.33
2023-01-17T17:35:34.948Z,10.00
2023-01-17T17:38:02.074Z,9.63
2023-01-17T17:40:29.291Z,10.33
2023-01-17T17:42:56.256Z,11.53
2023-01-17T17:45:23.607Z,12.23
2023-01-17T17:47:50.671Z,13.23
2023-01-17T17:50:18.165Z,13.33
2023-01-17T17:52:45.073Z,10.93
2023-01-17T17:55:13.186Z,10.73
2023-01-17T17:57:40.185Z,10.83
2023-01-17T18:00:08.164Z,12.50
2023-01-17T18:02:35.161Z,13.73
2023-01-17T18:05:02.563Z,13.27
2023-01-17T18:07:32.835Z,13.77
2023-01-17T18:10:00.097Z,12.87
2023-01-17T18:12:27.127Z,14.40
2023-01-17T18:14:54.406Z,17.30
2023-01-17T18:17:21.434Z,19.03
2023-01-17T18:19:48.632Z,22.57
2023-01-17T18:22:15.690Z,21.90
2023-01-17T18:24:42.962Z,18.63
2023-01-17T18:27:10.526Z,19.00
2023-01-17T18:29:37.735Z,18.67
2023-01-17T18:32:04.871Z,19.60
2023-01-17T18:34:33.784Z,19.00
2023-01-17T18:37:01.036Z,18.93
2023-01-17T18:39:29.997Z,20.87
2023-01-17T18:41:57.703Z,19.83
2023-01-17T18:44:26.704Z,19.63
2023-01-17T18:46:54.836Z,19.90
2023-01-17T18:49:22.457Z,23.37
2023-01-17T18:51:51.243Z,20.40
2023-01-17T18:54:19.943Z,23.13
2023-01-17T18:56:47.015Z,24.03
2023-01-17T18:59:18.144Z,25.37
2023-01-17T19:01:45.377Z,23.80
2023-01-17T19:04:14.635Z,23.57
2023-01-17T19:06:43.917Z,25.13
2023-01-17T19:09:13.259Z,25.60
2023-01-17T19:11:40.533Z,26.97
2023-01-17T19:14:07.809Z,24.37
2023-01-17T19:16:39.441Z,25.77
2023-01-17T19:19:12.169Z,24.93
2023-01-17T19:21:39.604Z,27.83
2023-01-17T19:24:07.569Z,27.40
2023-01-17T19:26:34.597Z,27.50
2023-01-17T19:29:05.253Z,26.90
2023-01-17T19:31:36.211Z,27.47
2023-01-17T19:34:03.538Z,29.40
2023-01-17T19:36:36.195Z,28.23
2023-01-17T19:39:06.687Z,28.07
2023-01-17T19:41:36.267Z,25.67
2023-01-17T19:44:06.785Z,24.90
2023-01-17T19:46:34.794Z,25.67
2023-01-17T19:49:02.457Z,26.60
2023-01-17T19:51:29.885Z,26.77
2023-01-17T19:53:59.888Z,26.43
2023-01-17T19:56:27.776Z,26.13
2023-01-17T19:58:57.174Z,25.03
2023-01-17T20:01:28.749Z,27.30
2023-01-17T20:03:58.039Z,33.53
2023-01-17T20:06:27.693Z,38.00
2023-01-17T20:08:54.924Z,36.40
2023-01-17T20:11:23.452Z,35.13
2023-01-17T20:13:56.121Z,29.47
2023-01-17T20:16:24.767Z,29.77
2023-01-17T20:18:52.208Z,28.37
2023-01-17T20:21:21.720Z,27.67
2023-01-17T20:23:50.425Z,27.60
2023-01-17T20:26:20.483Z,26.97
2023-01-17T20:28:49.512Z,29.83
2023-01-17T20:31:19.215Z,28.67
2023-01-17T20:33:47.760Z,29.33
2023-01-17T20:36:16.653Z,27.50
2023-01-17T20:38:44.906Z,32.77
2023-01-17T20:41:14.499Z,26.50
2023-01-17T20:43:43.128Z,25.73
2023-01-17T20:46:10.886Z,24.97
2023-01-17T20:48:47.476Z,26.57
2023-01-17T20:51:15.629Z,26.93
2023-01-17T20:53:44.709Z,25.50
2023-01-17T20:56:14.230Z,26.53
2023-01-17T20:58:42.094Z,29.87
2023-01-17T21:01:11.455Z,32.17
2023-01-17T21:03:40.130Z,34.63
2023-01-17T21:06:12.027Z,35.53
2023-01-17T21:08:40.963Z,29.03
2023-01-17T21:11:12.435Z,32.10
2023-01-17T21:13:40.244Z,29.60
2023-01-17T21:16:09.288Z,32.67
2023-01-17T21:18:36.645Z,31.57
2023-01-17T21:21:05.745Z,33.67
2023-01-17T21:23:37.752Z,30.53
2023-01-17T21:26:06.227Z,30.10
2023-01-17T21:28:35.522Z,30.10
2023-01-17T21:31:16.706Z,28.00
2023-01-17T21:33:44.109Z,27.37
2023-01-17T21:36:11.391Z,26.77
2023-01-17T21:38:39.108Z,27.40
2023-01-17T21:41:06.422Z,27.80
2023-01-17T21:43:33.619Z,26.83
2023-01-17T21:46:04.834Z,28.53
2023-01-17T21:48:32.265Z,26.17
2023-01-17T21:51:09.190Z,28.83
2023-01-17T21:53:38.492Z,27.57
2023-01-17T21:56:26.403Z,27.67
2023-01-17T21:58:56.832Z,27.90
2023-01-17T22:01:27.414Z,27.97
2023-01-17T22:04:01.059Z,29.10
2023-01-17T22:06:30.386Z,28.00
2023-01-17T22:08:58.071Z,27.73
2023-01-17T22:11:27.427Z,27.00
2023-01-17T22:13:56.742Z,26.23
2023-01-17T22:16:26.045Z,28.90
2023-01-17T22:18:53.303Z,28.47
2023-01-17T22:21:22.809Z,29.20
2023-01-17T22:23:52.155Z,29.17
2023-01-17T22:26:21.144Z,28.37
2023-01-17T22:28:48.376Z,27.73
2023-01-17T22:31:19.141Z,28.37
2023-01-17T22:33:48.249Z,28.50
2023-01-17T22:36:15.424Z,28.57
2023-01-17T22:38:44.281Z,28.47
2023-01-17T22:41:16.043Z,28.83
2023-01-17T22:43:46.843Z,28.23
2023-01-17T22:46:19.418Z,28.63
2023-01-17T22:48:47.012Z,27.90
2023-01-17T22:51:16.974Z,28.63
2023-01-17T22:53:47.323Z,27.60
2023-01-17T22:56:21.398Z,28.53
2023-01-17T22:58:49.149Z,27.73
2023-01-17T23:01:22.548Z,28.80
2023-01-17T23:04:03.356Z,29.33
2023-01-17T23:06:32.587Z,28.60
2023-01-17T23:09:02.515Z,28.03
2023-01-17T23:11:40.970Z,28.50
2023-01-17T23:14:14.680Z,29.17
2023-01-17T23:17:22.399Z,28.93
2023-01-17T23:19:52.568Z,28.90
2023-01-17T23:22:26.803Z,27.83
2023-01-17T23:25:07.614Z,26.83
2023-01-17T23:28:01.775Z,25.57
2023-01-17T23:30:34.619Z,29.07
2023-01-17T23:33:05.102Z,27.70
2023-01-17T23:35:34.990Z,28.77
2023-01-17T23:38:21.477Z,28.00
2023-01-17T23:41:08.869Z,28.03
2023-01-17T23:43:36.690Z,28.00
2023-01-17T23:46:04.884Z,28.73
2023-01-17T23:48:32.096Z,27.80
2023-01-17T23:51:02.313Z,28.50
2023-01-17T23:53:29.222Z,27.83
2023-01-17T23:55:57.252Z,29.43
2023-01-17T23:58:26.907Z,31.03
